createdAt,value
2022-10-21T00:00:50.233Z,10.60
2022-10-21T00:03:18.296Z,10.70
2022-10-21T00:05:46.164Z,10.70
2022-10-21T00:08:15.641Z,10.80
2022-10-21T00:10:43.573Z,10.80
2022-10-21T00:13:11.677Z,10.90
2022-10-21T00:15:39.519Z,11.00
2022-10-21T00:18:07.285Z,10.90
2022-10-21T00:20:37.456Z,10.90
2022-10-21T00:23:07.342Z,10.90
2022-10-21T00:25:36.439Z,10.80
2022-10-21T00:28:04.125Z,10.80
2022-10-21T00:30:31.835Z,10.80
2022-10-21T00:33:02.238Z,10.80
2022-10-21T00:35:34.454Z,10.70
2022-10-21T00:38:02.188Z,10.70
2022-10-21T00:40:29.983Z,10.70
2022-10-21T00:42:59.144Z,10.70
2022-10-21T00:45:30.849Z,10.70
2022-10-21T00:48:03.758Z,10.70
2022-10-21T00:50:37.467Z,10.80
2022-10-21T00:53:11.464Z,10.80
2022-10-21T00:55:44.563Z,10.80
2022-10-21T00:58:14.008Z,10.90
2022-10-21T01:00:41.739Z,10.90
2022-10-21T01:03:12.545Z,10.90
2022-10-21T01:05:41.346Z,11.00
2022-10-21T01:08:09.197Z,11.00
2022-10-21T01:10:38.742Z,11.10
2022-10-21T01:13:22.930Z,11.10
2022-10-21T01:15:57.745Z,11.10
2022-10-21T01:18:31.378Z,11.10
2022-10-21T01:21:16.309Z,11.20
2022-10-21T01:24:30.900Z,11.20
2022-10-21T01:27:22.463Z,11.30
2022-10-21T01:30:17.113Z,11.40
2022-10-21T01:33:00.942Z,11.40
2022-10-21T01:35:35.411Z,11.40
2022-10-21T01:38:10.413Z,11.50
2022-10-21T01:40:45.363Z,11.50
2022-10-21T01:43:21.773Z,11.50
2022-10-21T01:45:55.015Z,11.50
2022-10-21T01:48:28.404Z,11.40
2022-10-21T01:50:59.647Z,11.30
2022-10-21T01:53:29.745Z,11.30
2022-10-21T01:55:59.743Z,11.30
2022-10-21T01:58:31.120Z,11.30
2022-10-21T02:01:02.087Z,11.20
2022-10-21T02:03:35.964Z,11.20
2022-10-21T02:06:03.771Z,11.20
2022-10-21T02:08:31.714Z,11.10
2022-10-21T02:11:02.561Z,11.10
2022-10-21T02:13:35.194Z,11.10
2022-10-21T02:18:45.985Z,11.10
2022-10-21T02:21:19.464Z,11.10
2022-10-21T02:23:53.505Z,11.00
2022-10-21T02:26:22.085Z,11.00
2022-10-21T02:28:50.758Z,10.90
2022-10-21T02:31:38.618Z,10.90
2022-10-21T02:34:17.715Z,10.90
2022-10-21T02:36:53.179Z,10.80
2022-10-21T02:39:27.416Z,10.80
2022-10-21T02:41:58.838Z,10.70
2022-10-21T02:44:26.889Z,10.60
2022-10-21T02:46:54.640Z,10.60
2022-10-21T02:49:23.742Z,10.60
2022-10-21T02:51:54.539Z,10.50
2022-10-21T02:54:22.454Z,10.60
2022-10-21T02:56:50.172Z,10.50
2022-10-21T02:59:18.025Z,10.50
2022-10-21T03:01:45.860Z,10.50
2022-10-21T03:04:13.667Z,10.50
2022-10-21T03:06:42.793Z,10.50
2022-10-21T03:09:10.516Z,10.50
2022-10-21T03:11:38.309Z,10.50
2022-10-21T03:14:06.053Z,10.50
2022-10-21T03:16:33.961Z,10.50
2022-10-21T03:19:01.771Z,10.60
2022-10-21T03:21:29.509Z,10.60
2022-10-21T03:23:58.634Z,10.70
2022-10-21T03:26:26.379Z,10.70
2022-10-21T03:28:54.102Z,10.80
2022-10-21T03:31:21.850Z,10.80
2022-10-21T03:33:49.614Z,10.80
2022-10-21T03:36:17.361Z,10.80
2022-10-21T03:38:45.103Z,10.80
2022-10-21T03:44:17.622Z,10.80
2022-10-21T03:58:29.039Z,10.70
2022-10-21T04:00:58.097Z,10.60
2022-10-21T04:03:25.853Z,10.60
2022-10-21T04:05:53.628Z,10.60
2022-10-21T04:08:21.352Z,10.60
2022-10-21T04:10:49.191Z,10.60
2022-10-21T04:13:16.996Z,10.60
2022-10-21T04:15:45.598Z,10.60
2022-10-21T04:18:14.837Z,10.60
2022-10-21T04:20:42.809Z,10.60
2022-10-21T04:23:10.571Z,10.60
2022-10-21T04:25:38.321Z,10.60
2022-10-21T04:28:06.185Z,10.60
2022-10-21T04:30:33.895Z,10.60
2022-10-21T04:33:01.623Z,10.60
2022-10-21T04:35:30.737Z,10.60
2022-10-21T04:38:00.438Z,10.60
2022-10-21T04:40:28.386Z,10.60
2022-10-21T04:42:56.143Z,10.60
2022-10-21T04:45:23.880Z,10.60
2022-10-21T04:47:51.607Z,10.60
2022-10-21T04:50:19.465Z,10.60
2022-10-21T04:52:48.606Z,10.50
2022-10-21T04:55:16.479Z,10.50
2022-10-21T04:57:44.164Z,10.50
2022-10-21T05:00:13.158Z,10.50
2022-10-21T05:02:41.383Z,10.50
2022-10-21T05:05:10.147Z,10.50
2022-10-21T05:07:37.877Z,10.50
2022-10-21T05:10:07.804Z,10.50
2022-10-21T05:15:03.129Z,10.50
2022-10-21T05:17:30.945Z,10.50
2022-10-21T05:19:59.014Z,10.50
2022-10-21T05:22:26.686Z,10.50
2022-10-21T05:24:54.462Z,10.40
2022-10-21T05:27:23.488Z,10.40
2022-10-21T05:29:51.160Z,10.30
2022-10-21T05:32:18.890Z,10.30
2022-10-21T05:34:46.569Z,10.20
2022-10-21T05:37:14.271Z,10.20
2022-10-21T05:42:09.590Z,10.20
2022-10-21T05:44:38.648Z,10.20
2022-10-21T05:47:06.356Z,10.10
2022-10-21T05:49:34.057Z,10.20
2022-10-21T05:52:02.238Z,10.20
2022-10-21T05:54:29.948Z,10.20
2022-10-21T05:56:57.736Z,10.30
2022-10-21T05:59:26.751Z,10.40
2022-10-21T06:01:55.906Z,10.50
2022-10-21T06:04:23.612Z,10.60
2022-10-21T06:06:51.335Z,10.60
2022-10-21T06:09:19.130Z,10.70
2022-10-21T06:11:46.894Z,10.70
2022-10-21T06:14:14.578Z,10.80
2022-10-21T06:16:42.250Z,10.80
2022-10-21T06:19:11.288Z,10.80
2022-10-21T06:21:38.942Z,10.80
2022-10-21T06:24:07.021Z,10.90
2022-10-21T06:26:36.922Z,10.90
2022-10-21T06:29:04.964Z,11.00
2022-10-21T06:31:32.638Z,11.00
2022-10-21T06:34:00.315Z,11.00
2022-10-21T06:36:29.490Z,11.00
2022-10-21T06:38:57.305Z,11.00
2022-10-21T06:41:25.115Z,11.10
2022-10-21T06:43:52.829Z,11.10
2022-10-21T06:46:20.582Z,11.10
2022-10-21T06:48:48.391Z,11.10
2022-10-21T06:51:19.963Z,11.20
2022-10-21T06:53:54.186Z,11.20
2022-10-21T06:56:22.577Z,11.20
2022-10-21T06:58:51.425Z,11.30
2022-10-21T07:01:33.370Z,11.40
2022-10-21T07:04:03.501Z,11.50
2022-10-21T07:09:00.751Z,11.70
2022-10-21T07:11:28.975Z,11.70
2022-10-21T07:13:57.472Z,11.80
2022-10-21T07:16:27.000Z,11.90
2022-10-21T07:18:55.408Z,12.00
2022-10-21T07:21:26.333Z,12.00
2022-10-21T07:23:57.950Z,12.00
2022-10-21T07:26:30.227Z,12.00
2022-10-21T07:29:00.597Z,12.10
2022-10-21T07:31:31.753Z,12.10
2022-10-21T07:34:00.424Z,12.10
2022-10-21T07:36:30.419Z,12.10
2022-10-21T07:39:00.497Z,12.20
2022-10-21T07:41:32.022Z,12.30
2022-10-21T07:43:59.973Z,12.30
2022-10-21T07:46:27.911Z,12.40
2022-10-21T07:48:56.457Z,12.40
2022-10-21T07:51:28.862Z,12.40
2022-10-21T07:54:00.269Z,12.40
2022-10-21T07:56:32.520Z,12.40
2022-10-21T07:59:02.473Z,12.40
2022-10-21T08:01:30.659Z,12.30
2022-10-21T08:03:59.295Z,12.30
2022-10-21T08:06:28.727Z,12.30
2022-10-21T08:08:58.142Z,12.20
2022-10-21T08:11:28.064Z,12.20
2022-10-21T08:13:57.534Z,12.30
2022-10-21T08:16:26.491Z,12.30
2022-10-21T08:18:56.473Z,12.40
2022-10-21T08:21:24.183Z,12.40
2022-10-21T08:23:51.912Z,12.50
2022-10-21T08:26:20.317Z,12.50
2022-10-21T08:28:48.161Z,12.50
2022-10-21T08:31:19.813Z,12.60
2022-10-21T08:33:47.955Z,12.60
2022-10-21T08:36:17.686Z,12.70
2022-10-21T08:38:45.655Z,12.80
2022-10-21T08:41:37.799Z,12.90
2022-10-21T08:44:07.956Z,13.10
2022-10-21T08:46:41.666Z,13.20
2022-10-21T08:49:16.577Z,13.30
2022-10-21T08:51:50.573Z,13.30
2022-10-21T08:54:23.025Z,13.30
2022-10-21T08:58:02.391Z,13.30
2022-10-21T09:01:16.756Z,13.30
2022-10-21T09:07:37.770Z,13.60
2022-10-21T09:10:21.668Z,13.70
2022-10-21T09:25:22.421Z,13.80
2022-10-21T09:27:59.107Z,13.90
2022-10-21T09:30:37.524Z,13.90
2022-10-21T09:34:02.671Z,14.00
2022-10-21T09:36:40.769Z,14.10
2022-10-21T09:39:45.143Z,14.20
2022-10-21T09:42:47.255Z,14.30
2022-10-21T09:46:09.270Z,14.30
2022-10-21T09:56:08.346Z,14.20
2022-10-21T09:59:00.086Z,14.00
2022-10-21T10:01:45.762Z,13.90
2022-10-21T10:08:22.907Z,13.70
2022-10-21T10:10:50.864Z,13.70
2022-10-21T10:13:20.986Z,13.60
2022-10-21T10:15:49.239Z,13.60
2022-10-21T10:18:24.071Z,13.70
2022-10-21T10:21:13.888Z,13.70
2022-10-21T10:28:02.079Z,13.90
2022-10-21T10:30:51.053Z,14.00
2022-10-21T10:33:24.720Z,14.20
2022-10-21T10:35:55.562Z,14.40
2022-10-21T10:41:57.708Z,14.60
2022-10-21T10:44:56.398Z,14.80
2022-10-21T10:47:55.834Z,14.90
2022-10-21T10:59:09.749Z,15.20
2022-10-21T11:02:45.292Z,15.20
2022-10-21T15:14:01.056Z,16.60
2022-10-21T15:16:30.488Z,16.60
2022-10-21T15:18:59.917Z,16.50
2022-10-21T15:25:40.996Z,16.50
2022-10-21T15:28:20.723Z,16.50
2022-10-21T15:33:46.085Z,16.40
2022-10-21T15:36:31.280Z,16.40
2022-10-21T15:38:59.858Z,16.40
2022-10-21T15:41:30.732Z,16.30
2022-10-21T15:51:51.922Z,16.30
2022-10-21T17:02:29.291Z,15.50
2022-10-21T17:05:12.102Z,15.60
2022-10-21T17:08:01.777Z,15.70
2022-10-21T17:10:47.237Z,15.70
2022-10-21T17:13:19.108Z,15.80
2022-10-21T17:15:49.063Z,15.90
2022-10-21T17:18:20.799Z,15.90
2022-10-21T17:20:51.102Z,15.90
2022-10-21T17:23:35.983Z,15.90
2022-10-21T17:26:11.885Z,15.90
2022-10-21T17:28:42.675Z,15.90
2022-10-21T17:31:44.263Z,16.00
2022-10-21T17:34:28.581Z,16.00
2022-10-21T17:39:57.854Z,16.00
2022-10-21T17:42:27.538Z,16.10
2022-10-21T17:51:08.943Z,16.00
2022-10-21T17:53:36.940Z,16.00
2022-10-21T17:56:07.463Z,16.00
2022-10-21T17:58:36.176Z,15.90
2022-10-21T18:01:09.436Z,16.00
2022-10-21T18:03:40.978Z,16.00
2022-10-21T18:06:15.616Z,16.00
2022-10-21T18:08:43.876Z,16.00
2022-10-21T18:11:14.274Z,16.00
2022-10-21T18:13:43.047Z,16.10
2022-10-21T18:16:12.643Z,16.10
2022-10-21T18:21:15.108Z,16.20
2022-10-21T18:23:45.392Z,16.20
2022-10-21T18:26:21.095Z,16.20
2022-10-21T18:28:57.973Z,16.20
2022-10-21T18:31:32.617Z,16.10
2022-10-21T18:34:09.823Z,16.10
2022-10-21T18:36:40.749Z,16.10
2022-10-21T18:39:18.433Z,16.10
2022-10-21T18:41:58.080Z,16.10
2022-10-21T18:44:30.966Z,16.10
2022-10-21T18:47:06.611Z,16.10
2022-10-21T18:49:39.795Z,16.10
2022-10-21T18:52:13.591Z,16.10
2022-10-21T18:54:44.846Z,16.10
2022-10-21T18:58:37.603Z,16.10
2022-10-21T19:04:50.049Z,16.10
2022-10-21T19:08:06.354Z,16.20
2022-10-21T19:10:38.085Z,16.20
2022-10-21T19:13:28.195Z,16.20
2022-10-21T19:15:59.192Z,16.20
2022-10-21T19:18:32.637Z,16.30
2022-10-21T19:21:15.664Z,16.30
2022-10-21T19:27:41.256Z,16.40
2022-10-21T19:30:21.254Z,16.40
2022-10-21T19:33:16.156Z,16.40
2022-10-21T19:36:01.111Z,16.50
2022-10-21T19:42:32.842Z,16.50
2022-10-21T19:45:03.928Z,16.50
2022-10-21T19:47:34.713Z,16.50
2022-10-21T19:50:19.848Z,16.60
2022-10-21T19:53:00.142Z,16.60
2022-10-21T19:55:28.401Z,16.50
2022-10-21T19:57:57.651Z,16.50
2022-10-21T20:00:25.565Z,16.40
2022-10-21T20:03:18.521Z,16.50
2022-10-21T20:05:46.593Z,16.40
2022-10-21T20:08:14.693Z,16.40
2022-10-21T20:10:48.264Z,16.40
2022-10-21T20:13:19.161Z,16.40
2022-10-21T20:15:57.808Z,16.40
2022-10-21T20:18:29.373Z,16.40
2022-10-21T20:21:15.330Z,16.40
2022-10-21T20:24:45.492Z,16.40
2022-10-21T20:34:37.617Z,16.30
2022-10-21T20:37:15.531Z,16.30
2022-10-21T20:40:46.927Z,16.30
2022-10-21T20:44:55.005Z,16.30
2022-10-21T20:48:12.138Z,16.30
2022-10-21T20:55:01.612Z,16.20
2022-10-21T20:58:25.259Z,16.20
2022-10-21T21:01:16.583Z,16.20
2022-10-21T21:08:23.696Z,16.10
2022-10-21T21:10:55.345Z,16.10
2022-10-21T21:13:23.132Z,16.00
2022-10-21T21:15:51.085Z,16.00
2022-10-21T21:18:19.164Z,16.00
2022-10-21T21:20:50.229Z,16.00
2022-10-21T21:23:20.636Z,16.00
2022-10-21T21:25:48.536Z,16.00
2022-10-21T21:28:16.791Z,16.00
2022-10-21T21:30:52.909Z,16.00
2022-10-21T21:33:22.718Z,16.00
2022-10-21T21:35:50.629Z,16.00
2022-10-21T21:38:19.857Z,16.00
2022-10-21T21:40:47.930Z,16.00
2022-10-21T21:43:15.785Z,16.00
2022-10-21T21:45:45.100Z,15.90
2022-10-21T21:48:13.429Z,15.90
2022-10-21T21:50:41.703Z,15.90
2022-10-21T21:53:11.379Z,15.80
2022-10-21T21:55:43.692Z,15.70
2022-10-21T21:58:11.716Z,15.70
2022-10-21T22:00:40.173Z,15.50
2022-10-21T22:03:08.233Z,15.50
2022-10-21T22:05:36.206Z,15.40
2022-10-21T22:08:04.649Z,15.30
2022-10-21T22:10:33.094Z,15.20
2022-10-21T22:13:02.649Z,15.20
2022-10-21T22:15:47.193Z,15.10
2022-10-21T22:18:16.667Z,15.10
2022-10-21T22:20:44.664Z,15.10
2022-10-21T22:23:12.746Z,15.10
2022-10-21T22:25:40.632Z,15.20
2022-10-21T22:28:12.026Z,15.30
2022-10-21T22:30:40.142Z,15.40
2022-10-21T22:33:10.581Z,15.50
2022-10-21T22:35:39.355Z,15.60
2022-10-21T22:38:07.343Z,15.70
2022-10-21T22:41:06.115Z,15.80
2022-10-21T22:43:47.730Z,15.80
2022-10-21T22:49:05.024Z,15.90
2022-10-21T22:51:33.843Z,15.90
2022-10-21T22:54:02.162Z,16.00
2022-10-21T22:56:44.532Z,16.00
2022-10-21T22:59:14.126Z,16.10
2022-10-21T23:01:43.239Z,16.10
2022-10-21T23:04:11.664Z,16.20
2022-10-21T23:06:39.759Z,16.20
2022-10-21T23:09:08.483Z,16.20
2022-10-21T23:11:36.782Z,16.20
2022-10-21T23:14:08.556Z,16.30
2022-10-21T23:16:38.796Z,16.30
2022-10-21T23:19:13.946Z,16.30
2022-10-21T23:21:42.549Z,16.30
2022-10-21T23:24:10.781Z,16.40
2022-10-21T23:26:38.734Z,16.40
2022-10-21T23:29:06.727Z,16.40
2022-10-21T23:31:34.787Z,16.40
2022-10-21T23:34:05.961Z,16.50
2022-10-21T23:36:35.420Z,16.50
2022-10-21T23:39:03.668Z,16.50
2022-10-21T23:41:31.701Z,16.50
2022-10-21T23:43:59.871Z,16.50
2022-10-21T23:48:55.852Z,16.60
2022-10-21T23:51:25.314Z,16.60
2022-10-21T23:53:53.225Z,16.60
2022-10-21T23:56:21.159Z,16.60
